Steptoe Valley WMA, Nevada Weather observations

Data are for 10 minute period ending at time listed.
 Day   Time   Solar   Ave.   Ave.  Ave.  Vector  Max.   Baro.   Total    
  of    of     Rad.   Air    Rel.  Wind   Wind   Wind  Press.  Precip.   
Year   Day            Temp.  Hum.  Speed  Dir.   Gust                    
2014   (PST)  Kw/m2    F      %     mph   deg.    mph    mb.     in.     
-------------------------------------------------------------------------
 234    0:00   0.00   60.3    53   10.6   156    14.5   803.9    0.00 
 234    0:10   0.00   59.8    54   11.4   149    17.2   803.8    0.00 
 234    0:20   0.00   60.0    54   11.1   146    16.7   803.8    0.00 
 234    0:30   0.00   59.4    55   10.7   152    14.5   803.8    0.00 
 234    0:40   0.00   59.3    55   10.3   158    16.6   803.8    0.00 
 234    0:50   0.00   58.6    57    9.6   151    15.1   803.9    0.00 
 234    1:00   0.00   59.1    56    8.8   143    13.7   803.9    0.00 
 234    1:10   0.00   58.4    57    9.9   147    12.9   804.0    0.00 
 234    1:20   0.00   57.5    60    9.2   143    14.8   804.1    0.00 
 234    1:30   0.00   57.5    60   10.0   145    15.2   804.0    0.00 
 234    1:40   0.00   57.3    60   11.0   143    15.1   804.0    0.00 
 234    1:50   0.00   56.9    62   10.3   141    15.5   804.1    0.00 
 234    2:00   0.00   56.6    62   10.9   142    15.3   804.1    0.00 
 234    2:10   0.00   56.5    62   10.1   144    15.4   804.0    0.00 
 234    2:20   0.00   55.8    64    9.1   143    13.0   804.0    0.00 
 234    2:30   0.00   55.8    64    9.4   143    14.3   803.9    0.00 
 234    2:40   0.00   55.9    64    9.7   144    12.9   803.9    0.00 
 234    2:50   0.00   56.0    64   10.5   143    14.5   803.9    0.00 
 234    3:00   0.00   56.2    64   10.7   141    16.3   803.9    0.00 
 234    3:10   0.00   55.7    65   11.0   140    14.8   803.9    0.00 
 234    3:20   0.00   55.5    65   10.5   139    14.8   803.8    0.00 
 234    3:30   0.00   55.4    65    9.1   139    13.2   803.8    0.00 
 234    3:40   0.00   55.7    64    9.9   139    15.1   803.7    0.00 
 234    3:50   0.00   55.5    65    9.0   141    12.5   803.8    0.00 
 234    4:00   0.00   55.5    65    8.8   142    12.9   803.8    0.00 
 234    4:10   0.00   54.7    67    7.7   160    10.7   803.9    0.00 
 234    4:20   0.00   54.3    69    8.3   152    11.8   803.9    0.00 
 234    4:30   0.00   54.5    69    9.0   153    13.9   803.9    0.00 
 234    4:40   0.00   54.7    69   10.2   149    17.0   803.9    0.00 
 234    4:50   0.00   54.4    70    9.3   142    13.4   804.0    0.00 
 234    5:00   0.00   54.1    70    9.3   148    15.0   804.0    0.00 
 234    5:10   0.01   54.2    70    8.4   154    13.2   804.1    0.00 
 234    5:20   0.01   55.0    68    9.8   147    15.3   804.1    0.00 
 234    5:30   0.01   55.3    67    9.2   145    14.7   804.1    0.00 
 234    5:40   0.02   55.5    67    9.2   148    15.4   804.1    0.00 
 234    5:50   0.02   55.6    67   10.3   142    15.4   804.1    0.00 
 234    6:00   0.03   56.0    66   10.1   146    15.9   804.0    0.00 
 234    6:10   0.15   57.5    63    9.6   146    13.6   804.0    0.00 
 234    6:20   0.19   59.1    60    8.7   147    15.2   804.0    0.00 
 234    6:30   0.22   60.0    58    9.8   151    15.7   803.9    0.00 
 234    6:40   0.25   60.7    56   10.2   153    15.3   803.9    0.00 
 234    6:50   0.29   61.5    55   10.4   155    15.8   803.8    0.00 
 234    7:00   0.32   62.1    53   10.3   148    15.3   803.8    0.00 
 234    7:10   0.35   62.5    54   11.1   152    16.7   803.8    0.00 
 234    7:20   0.39   63.2    53   12.2   158    17.0   803.6    0.00 
 234    7:30   0.42   63.6    51   12.3   160    16.6   803.5    0.00 
 234    7:40   0.45   64.6    49   11.1   151    15.5   803.6    0.00 
 234    7:50   0.48   65.2    48   11.0   147    16.2   803.5    0.00 
 234    8:00   0.52   65.6    47   11.4   148    18.4   803.5    0.00 
 234    8:10   0.55   66.3    46   11.0   146    16.1   803.5    0.00 
 234    8:20   0.58   67.2    44   10.5   152    16.9   803.5    0.00 
 234    8:30   0.61   67.7    44   11.1   161    15.3   803.4    0.00 
 234    8:40   0.64   68.4    42   11.3   154    17.3   803.4    0.00 
 234    8:50   0.67   68.8    42   11.6   161    17.0   803.4    0.00 
 234    9:00   0.71   69.5    41   12.3   166    18.8   803.3    0.00 
 234    9:10   0.63   69.1    42   14.6   170    19.7   803.3    0.00 
 234    9:20   0.74   70.3    40   13.2   167    20.1   803.3    0.00 
 234    9:30   0.78   71.0    38   12.7   163    18.9   803.3    0.00 
 234    9:40   0.82   71.9    37   12.2   158    19.1   803.4    0.00 
 234    9:50   0.81   71.8    35   13.7   160    18.7   803.3    0.00 
 234   10:00   0.78   71.3    35   14.3   161    20.2   803.2    0.00 
 234   10:10   0.90   72.4    34   13.2   170    18.7   803.2    0.00 
 234   10:20   0.97   73.9    34    9.2   199    24.4   803.2    0.00 
 234   10:30   1.00   73.9    32   11.0   209    19.0   803.2    0.00 
 234   10:40   1.05   73.9    33    9.0   225    15.3   803.2    0.00 
 234   10:50   1.07   74.6    33    8.0   211    12.6   803.1    0.00 
 234   11:00   1.05   74.6    33    9.5   203    15.6   802.9    0.00 
 234   11:10   1.06   74.3    33    9.6   191    14.5   802.8    0.00 
 234   11:20   0.94   74.6    33    9.1   197    15.1   802.7    0.00 
 234   11:30   0.50   72.1    35    8.6   210    13.4   802.7    0.00 
 234   11:40   0.32   70.1    39    9.2   210    14.5   802.6    0.00 
 234   11:50   0.40   69.8    40    8.9   213    15.3   802.5    0.00 
 234   12:00   0.45   70.5    39    9.8   212    15.2   802.3    0.00 
 234   12:10   0.41   70.6    38   10.0   220    17.4   802.1    0.00 
 234   12:20   0.38   70.3    37   11.7   192    19.4   801.9    0.00 
 234   12:30   0.40   70.7    36   11.6   181    18.9   801.8    0.00 
 234   12:40   0.29   70.0    37   11.9   188    17.8   801.7    0.00 
 234   12:50   0.41   69.3    38   12.4   180    20.2   801.6    0.00 
 234   13:00   0.78   73.7    34   11.8   177    18.1   801.5    0.00 
 234   13:10   0.44   71.7    34   13.4   170    20.8   801.3    0.00 
 234   13:20   0.35   72.1    34   13.5   175    20.8   801.1    0.00 
 234   13:30   0.32   71.9    34   12.9   166    19.5   800.8    0.00 
 234   13:40   0.32   71.8    35   11.8   173    18.3   800.7    0.00 
 234   13:50   0.35   71.8    34   13.3   177    20.8   800.4    0.00 
 234   14:00   0.23   72.2    34   10.0   187    17.8   800.4    0.00 
 234   14:10   0.32   71.3    37    9.6   209    17.3   800.5    0.00 
 234   14:20   0.17   70.2    41    5.4   288    15.8   800.8    0.00 
 234   14:30   0.07   63.3    56    9.0   333    17.8   800.8    0.00 
 234   14:40   0.07   62.2    59   12.5   334    18.4   800.8    0.00 
 234   14:50   0.07   61.2    64   15.0   360    24.9   800.7    0.00 
 234   15:00   0.08   61.4    62   14.2    13    22.4   800.6    0.00 
 234   15:10   0.04   60.0    68   11.7   359    18.6   800.8    0.00 
 234   15:20   0.03   58.5    72   11.1   358    18.7   800.6    0.00 
 234   15:30   0.02   58.3    71    9.6   348    15.5   800.6    0.00 
 234   15:40   0.02   55.7    81    9.8   335    15.5   801.1    0.04 
 234   15:50   0.01   54.2    85    7.7   357    14.1   801.2    0.15 
 234   16:00   0.01   53.4    88    5.6   333    10.4   801.2    0.06 
 234   16:10   0.02   53.8    89    6.2   331    11.2   801.4    0.00 
 234   16:20   0.04   54.2    89    1.7   333     5.4   801.5    0.01 
 234   16:30   0.06   54.5    89    3.5   344     5.8   801.2    0.00 
 234   16:40   0.08   55.1    90    1.1   289     1.8   801.2    0.00 
 234   16:50   0.06   55.6    90    1.7   309     3.2   801.0    0.01 
 234   17:00   0.03   55.6    90    2.4    26     4.3   800.6    0.01 
 234   17:10   0.01   55.6    89    1.4   108     2.9   800.5    0.00 
 234   17:20   0.00   55.4    89    2.5   265     4.8   800.8    0.00 
 234   17:30   0.01   55.0    90    4.3   197     6.6   801.7    0.06 
 234   17:40   0.02   55.1    88    5.5   150     8.6   801.6    0.01 
 234   17:50   0.04   55.8    84    8.8   124    13.4   800.5    0.00 
 234   18:00   0.04   56.0    84    9.4   135    13.8   800.4    0.00 
 234   18:10   0.07   56.4    80    9.8   130    16.1   800.5    0.00 
 234   18:20   0.01   57.4    73    7.0   132    13.0   800.2    0.00 
 234   18:30   0.00   57.1    73    5.8   122    14.2   800.2    0.00 
 234   18:40   0.00   57.1    74    8.4   125    12.8   800.3    0.00 
 234   18:50   0.00   56.5    75   10.6   145    17.8   800.3    0.00 
 234   19:00   0.00   55.3    80   12.9   148    20.0   800.5    0.00 
 234   19:10   0.00   54.4    84   10.5   151    15.1   800.7    0.00 
 234   19:20   0.00   54.9    82    9.7   145    15.0   800.9    0.00 
 234   19:30   0.00   55.1    81    9.7   150    14.9   801.0    0.00 
 234   19:40   0.00   54.5    82    9.0   148    14.5   800.8    0.00 
 234   19:50   0.00   55.0    80    8.9   150    13.0   800.9    0.00 
 234   20:00   0.00   55.2    79    7.2   160    10.7   801.0    0.00 
 234   20:10   0.00   54.0    85    6.8   168     9.2   801.2    0.00 
 234   20:20   0.00   54.5    84    6.6   157    11.7   801.2    0.00 
 234   20:30   0.00   55.2    82    5.7   148     8.8   801.3    0.00 
 234   20:40   0.00   55.3    81    7.3   138    10.9   801.3    0.00 
 234   20:50   0.00   54.9    82    8.2   142    11.8   801.3    0.00 
 234   21:00   0.00   54.8    82    8.3   142    12.2   801.2    0.00 
 234   21:10   0.00   55.0    82    7.0   152     9.9   801.2    0.00 
 234   21:20   0.00   55.6    79    5.1   153     8.0   801.2    0.00 
 234   21:30   0.00   55.7    78    5.8   163     9.3   801.2    0.00 
 234   21:40   0.00   55.9    77    6.2   161     8.7   801.2    0.00 
 234   21:50   0.00   56.0    77    4.3   201     7.0   801.5    0.00 
 234   22:00   0.00   54.1    83    1.2   149     2.5   801.7    0.00 
 234   22:10   0.00   54.2    84    2.3   157     3.4   801.7    0.00 
 234   22:20   0.00   53.9    85    2.0    92     4.4   801.8    0.00 
 234   22:30   0.00   53.5    87    1.2    49     3.1   801.8    0.00 
 234   22:40   0.00   53.1    87    0.8    52     3.0   801.8    0.00 
 234   22:50   0.00   52.4    88    0.0   196     0.1   801.8    0.00 

Return to Steptoe Valley WMA graphs page.


Western Regional Climate Center,wrcc@dri.edu